• Join FlightAware (Why Join?)
  • Login
  • US Flag 
07:46PM EDT


 

Airport Tracker/Info


-or-


 

Live Flight TrackerFlight Track Log ✈ DAL3895 ✈ 18-Nov-2013 ✈ KPHL - KCVG

Flight Track Log - Related Links

Times and Time Zones

All times are in EST time to prevent confusion due to time zone crossing. See the DAL3895 flight status page for this flight to view local times or setup timezone preferences in your user account.

Time Position Orientation Groundspeed Altitude Reporting Facility
EST Latitude Longitude Course Direction KTS MPH feet Rate Location/Type
07:06AM 39.8667 -75.2833 218° Southwest 149 171 800  Level Philadelphia TRACON
07:06AM 39.8500 -75.3000 218° Southwest 145 167 1,700 2,040 Climbing Philadelphia TRACON
07:07AM 39.8333 -75.3667 252° West 187 215 3,900 2,400 Climbing Philadelphia TRACON
07:09AM 39.8647 -75.4931 288° West 227 261 8,400 2,280 Climbing New York Center
07:10AM 39.8903 -75.5814 291° West 232 267 10,400 1,560 Climbing New York Center
07:11AM 39.9139 -75.6667 290° West 257 296 11,600 1,440 Climbing New York Center
07:12AM 39.9156 -75.7781 271° West 276 318 13,300 1,560 Climbing New York Center
07:13AM 39.9142 -75.8592 269° West 291 335 14,800 1,740 Climbing New York Center
07:14AM 39.9131 -75.9808 269° West 285 328 16,800 1,500 Climbing New York Center
07:15AM 39.9083 -76.0858 267° West 292 336 17,800 1,020 Climbing New York Center
07:16AM 39.9075 -76.1942 269° West 297 342 18,900 900 Climbing New York Center
07:17AM 39.9125 -76.3111 273° West 311 358 19,700 780 Climbing New York Center
07:18AM 39.9175 -76.4278 273° West 317 365 20,500 780 Climbing New York Center
07:19AM 39.9244 -76.5419 275° West 317 365 21,300 780 Climbing New York Center
07:20AM 39.9289 -76.6589 273° West 322 371 22,100 720 Climbing New York Center
07:21AM 39.9142 -76.7469 258° West 322 371 22,800 780 Climbing New York Center
07:22AM 39.8536 -76.8689 237° Southwest 322 371 23,700 840 Climbing New York Center
07:23AM 39.8047 -76.9700 238° Southwest 322 371 24,500 720 Climbing New York Center
07:24AM 39.7544 -77.0758 238° Southwest 318 366 25,300 720 Climbing Washington Center
07:25AM 39.7053 -77.1747 237° Southwest 323 372 26,100 780 Climbing Washington Center
07:26AM 39.6603 -77.2761 240° Southwest 328 377 26,900 780 Climbing Washington Center
07:27AM 39.6108 -77.3747 237° Southwest 328 377 27,700 540 Climbing Washington Center
07:28AM 39.5656 -77.4758 240° Southwest 328 377 28,000 120 Climbing Washington Center
07:29AM 39.5139 -77.5794 237° Southwest 333 383 28,000  Level Washington Center
07:30AM 39.4642 -77.6883 239° Southwest 344 396 28,000  Level Washington Center
07:31AM 39.4081 -77.7994 237° Southwest 351 404 28,000  Level Washington Center
07:32AM 39.3622 -77.9136 243° Southwest 362 417 28,000  Level Washington Center
07:33AM 39.3203 -78.0194 243° Southwest 367 422 28,000  Level Washington Center
07:34AM 39.2722 -78.1333 241° Southwest 367 422 28,000  Level Washington Center
07:35AM 39.2347 -78.2256 242° Southwest 362 417 28,000  Level Washington Center
07:36AM 39.1794 -78.3683 243° Southwest 362 417 28,000  Level Washington Center
07:37AM 39.1331 -78.4842 243° Southwest 362 417 28,000  Level Washington Center
07:38AM 39.0842 -78.6028 242° Southwest 362 417 28,000  Level Washington Center
07:39AM 39.0353 -78.7236 243° Southwest 367 422 28,000  Level Washington Center
07:40AM 38.9883 -78.8392 242° Southwest 367 422 28,000  Level Washington Center
07:41AM 38.9394 -78.9544 241° Southwest 367 422 28,000  Level Washington Center
07:42AM 38.8922 -79.0750 243° Southwest 367 422 28,000  Level Washington Center
07:43AM 38.8469 -79.1900 243° Southwest 367 422 28,000  Level Washington Center
07:44AM 38.8389 -79.3175 265° West 356 410 28,000  Level Washington Center
07:45AM 38.8369 -79.4456 269° West 356 410 28,000  Level Washington Center
07:46AM 38.8364 -79.5947 270° West 356 410 28,000  Level Washington Center
07:47AM 38.8319 -79.7250 268° West 377 434 28,000  Level Washington Center
07:48AM 38.8294 -79.8528 269° West 377 434 28,000  Level Washington Center
07:49AM 38.8256 -79.9672 268° West 366 421 28,000  Level Washington Center
07:50AM 38.8228 -80.0950 268° West 366 421 28,000  Level Washington Center
07:52AM 38.8156 -80.2733 267° West 357 411 28,000  Level Indianapolis Center
07:53AM 38.8119 -80.4006 268° West 358 412 28,000  Level Indianapolis Center
07:54AM 38.8092 -80.5261 268° West 354 407 28,000  Level Indianapolis Center
07:55AM 38.8061 -80.6525 268° West 355 409 28,000  Level Indianapolis Center
07:56AM 38.8003 -80.8033 267° West 355 409 28,000 -120 Level Indianapolis Center
07:57AM 38.7961 -80.9303 268° West 357 411 27,800 -600 Descending Indianapolis Center
07:58AM 38.7928 -81.0458 268° West 328 377 26,800 -900 Descending Indianapolis Center
07:59AM 38.7886 -81.1553 267° West 309 356 26,000 -420 Descending Indianapolis Center
08:00AM 38.7847 -81.2644 267° West 308 354 26,000  Level Indianapolis Center
08:01AM 38.7806 -81.3753 267° West 313 360 26,000  Level Indianapolis Center
08:02AM 38.7758 -81.5025 267° West 324 373 26,000 -360 Level Indianapolis Center
08:03AM 38.7586 -81.6272 260° West 337 388 25,300 -840 Descending Indianapolis Center
08:04AM 38.7358 -81.7414 256° West 337 388 24,300 -660 Descending Indianapolis Center
08:05AM 38.7122 -81.8533 255° West 329 379 24,000 -180 Descending Indianapolis Center
08:06AM 38.6886 -81.9664 255° West 329 379 24,000  Level Indianapolis Center
08:07AM 38.6606 -82.1031 255° West 333 383 24,000  Level Indianapolis Center
08:08AM 38.6358 -82.2178 255° West 334 384 24,000 -300 Level Indianapolis Center
08:09AM 38.6119 -82.3325 255° West 334 384 23,500 -540 Descending Indianapolis Center
08:10AM 38.5872 -82.4464 255° West 333 383 23,000 -300 Descending Indianapolis Center
08:11AM 38.5644 -82.5531 255° West 327 376 23,000  Level Indianapolis Center
08:12AM 38.5367 -82.6847 255° West 328 377 23,000  Level Indianapolis Center
08:13AM 38.5128 -82.7975 255° West 329 379 23,000 -540 Level Indianapolis Center
08:14AM 38.5194 -82.9061 275° West 308 354 22,000 -540 Descending Indianapolis Center
08:15AM 38.5294 -83.0106 277° West 298 343 22,000  Level Indianapolis Center
08:16AM 38.5394 -83.1164 277° West 299 344 22,000 -300 Level Indianapolis Center
08:17AM 38.5494 -83.2225 277° West 301 346 21,500 -1,260 Descending Indianapolis Center
08:18AM 38.5608 -83.3425 277° West 294 338 19,400 -2,040 Descending Indianapolis Center
08:19AM 38.5717 -83.4506 277° West 303 349 17,400 -1,860 Descending Indianapolis Center
08:20AM 38.5811 -83.5564 277° West 301 346 15,600 -1,860 Descending Indianapolis Center
08:21AM 38.5911 -83.6558 277° West 287 330 13,700 -1,860 Descending Indianapolis Center
08:23AM 38.5994 -83.7603 276° West 294 338 11,800 -1,800 Descending Indianapolis Center
08:24AM 38.6092 -83.8639 277° West 294 338 10,100 -840 Descending Indianapolis Center
08:25AM 38.6417 -83.9750 291° West 298 343 10,100 -60 Level Indianapolis Center
08:26AM 38.6850 -84.0589 304° West 303 349 10,000 -60 Descending Indianapolis Center
08:27AM 38.7308 -84.1481 303° West 301 346 10,000 -60 Level Indianapolis Center
08:28AM 38.7767 -84.2364 304° West 297 342 9,900 -540 Descending Indianapolis Center
08:29AM 38.8211 -84.3219 304° West 245 282 9,000 -480 Descending Indianapolis Center
08:30AM 38.8511 -84.3814 303° West 205 236 9,000  Level Indianapolis Center
08:31AM 38.8822 -84.4428 303° West 204 235 9,000  Level Indianapolis Center
08:32AM 38.9128 -84.5047 302° West 206 237 9,000  Level Indianapolis Center
08:33AM 38.9633 -84.5383 333° Northwest 223 257 9,000 -600 Level Indianapolis Center
08:34AM 39.0281 -84.5414 358° North 232 267 7,800 -1,200 Descending Indianapolis Center
08:35AM 39.0894 -84.5417 360° North 225 259 6,600 -1,380 Descending Indianapolis Center
08:36AM 39.1608 -84.5419 360° North 217 250 5,000 -1,440 Descending Indianapolis Center
08:37AM 39.2056 -84.5672 336° Northwest 216 249 3,700 -1,020 Descending Indianapolis Center
08:38AM 39.1911 -84.6239 252° West 203 234 3,000 -780 Descending Indianapolis Center
08:40AM 39.1000 -84.6667 200° South 164 189 1,700 -780 Descending Cincinnati TRACON
08:42AM 39.0488 -84.6678 195° South  Level Estimated
08:49AM 39.0488 -84.6678 195° South  Level Estimated